createdAt,value
2022-08-16T00:02:34.654Z,0.88
2022-08-16T00:05:03.322Z,1.00
2022-08-16T00:07:31.814Z,0.98
2022-08-16T00:10:00.970Z,1.08
2022-08-16T00:12:32.095Z,1.23
2022-08-16T00:15:13.298Z,1.20
2022-08-16T00:17:57.008Z,1.10
2022-08-16T00:20:26.846Z,1.25
2022-08-16T00:22:55.418Z,1.08
2022-08-16T00:26:33.306Z,1.40
2022-08-16T00:28:15.004Z,1.15
2022-08-16T00:30:43.191Z,1.27
2022-08-16T00:33:14.036Z,1.07
2022-08-16T00:35:41.996Z,1.05
2022-08-16T00:38:40.866Z,1.35
2022-08-16T00:41:00.519Z,1.13
2022-08-16T00:43:42.881Z,1.10
2022-08-16T00:46:33.300Z,0.90
2022-08-16T00:51:54.782Z,1.00
2022-08-16T00:54:27.709Z,0.88
2022-08-16T00:56:59.831Z,1.60
2022-08-16T00:59:34.469Z,1.17
2022-08-16T01:02:31.515Z,1.27
2022-08-16T01:05:08.981Z,1.20
2022-08-16T01:07:51.117Z,1.17
2022-08-16T01:10:21.711Z,1.20
2022-08-16T01:13:06.160Z,0.93
2022-08-16T01:15:36.613Z,1.20
2022-08-16T01:18:08.377Z,1.23
2022-08-16T01:21:09.281Z,1.02
2022-08-16T01:24:01.136Z,1.20
2022-08-16T01:26:35.254Z,1.20
2022-08-16T01:29:10.462Z,1.40
2022-08-16T01:31:42.762Z,1.50
2022-08-16T01:34:25.464Z,1.08
2022-08-16T01:37:04.959Z,1.40
2022-08-16T01:39:35.638Z,1.20
2022-08-16T01:44:42.118Z,1.25
2022-08-16T01:47:12.341Z,1.10
2022-08-16T01:50:42.276Z,1.10
2022-08-16T01:52:33.165Z,1.27
2022-08-16T01:55:04.119Z,1.17
2022-08-16T01:57:32.097Z,1.10
2022-08-16T02:00:10.438Z,1.33
2022-08-16T02:02:52.492Z,1.30
2022-08-16T02:05:23.688Z,1.25
2022-08-16T02:07:51.869Z,1.10
2022-08-16T02:10:21.689Z,1.15
2022-08-16T02:13:00.183Z,1.33
2022-08-16T02:15:35.586Z,1.38
2022-08-16T02:18:12.442Z,1.25
2022-08-16T02:20:45.462Z,1.30
2022-08-16T02:23:13.585Z,1.30
2022-08-16T02:25:50.914Z,1.20
2022-08-16T02:28:23.563Z,1.00
2022-08-16T02:30:52.362Z,1.30
2022-08-16T02:33:24.338Z,0.93
2022-08-16T02:35:55.290Z,1.15
2022-08-16T02:38:27.162Z,1.38
2022-08-16T02:40:56.979Z,1.50
2022-08-16T02:43:26.860Z,1.25
2022-08-16T02:45:55.431Z,1.25
2022-08-16T02:48:29.966Z,1.40
2022-08-16T02:51:06.415Z,0.88
2022-08-16T02:53:43.097Z,1.20
2022-08-16T02:56:15.258Z,1.13
2022-08-16T02:58:44.130Z,1.33
2022-08-16T03:01:23.989Z,1.10
2022-08-16T03:04:28.981Z,1.00
2022-08-16T03:06:43.101Z,1.25
2022-08-16T03:09:15.040Z,1.40
2022-08-16T03:11:45.921Z,1.13
2022-08-16T03:14:13.970Z,1.45
2022-08-16T03:16:58.884Z,1.13
2022-08-16T03:19:56.505Z,1.17
2022-08-16T03:22:28.391Z,1.38
2022-08-16T03:25:00.950Z,1.20
2022-08-16T03:27:32.510Z,1.25
2022-08-16T03:30:15.305Z,1.85
2022-08-16T03:32:47.303Z,1.20
2022-08-16T03:38:02.038Z,1.05
2022-08-16T03:40:33.879Z,1.10
2022-08-16T03:43:20.599Z,1.42
2022-08-16T03:45:52.453Z,1.25
2022-08-16T03:48:37.193Z,1.00
2022-08-16T03:51:12.267Z,1.10
2022-08-16T03:53:42.554Z,1.20
2022-08-16T03:56:19.901Z,1.10
2022-08-16T03:58:52.604Z,1.42
2022-08-16T04:01:21.329Z,1.30
2022-08-16T04:03:51.103Z,1.20
2022-08-16T04:06:21.795Z,1.15
2022-08-16T04:08:49.906Z,1.13
2022-08-16T04:11:19.164Z,1.10
2022-08-16T04:14:00.095Z,1.65
2022-08-16T04:16:36.727Z,1.55
2022-08-16T04:19:04.964Z,2.03
2022-08-16T04:21:34.773Z,1.90
2022-08-16T04:24:07.981Z,1.98
2022-08-16T04:26:37.026Z,1.80
2022-08-16T04:29:23.659Z,2.20
2022-08-16T04:31:56.268Z,1.73
2022-08-16T04:34:31.032Z,1.95
2022-08-16T04:37:02.025Z,2.13
2022-08-16T04:39:45.817Z,2.05
2022-08-16T04:42:17.567Z,2.20
2022-08-16T04:44:53.983Z,1.75
2022-08-16T04:47:31.408Z,2.05
2022-08-16T04:50:01.350Z,2.00
2022-08-16T04:52:35.119Z,1.90
2022-08-16T04:55:08.364Z,1.90
2022-08-16T04:57:38.486Z,1.80
2022-08-16T05:00:30.376Z,2.00
2022-08-16T05:03:07.372Z,1.77
2022-08-16T05:05:45.324Z,1.90
2022-08-16T05:08:28.441Z,2.00
2022-08-16T05:11:01.453Z,2.10
2022-08-16T05:13:40.277Z,1.98
2022-08-16T05:16:19.986Z,2.20
2022-08-16T05:18:50.440Z,1.88
2022-08-16T05:21:20.738Z,2.15
2022-08-16T05:23:55.597Z,1.83
2022-08-16T05:26:27.808Z,1.77
2022-08-16T05:28:56.801Z,1.55
2022-08-16T05:31:29.702Z,2.42
2022-08-16T05:33:59.656Z,2.20
2022-08-16T05:36:34.048Z,2.00
2022-08-16T05:39:07.962Z,2.30
2022-08-16T05:41:45.422Z,2.05
2022-08-16T05:44:23.804Z,2.05
2022-08-16T05:46:56.427Z,2.08
2022-08-16T05:49:25.127Z,2.25
2022-08-16T05:51:55.463Z,1.73
2022-08-16T05:54:25.660Z,2.10
2022-08-16T05:56:55.691Z,2.17
2022-08-16T05:59:27.001Z,2.03
2022-08-16T06:01:56.821Z,2.67
2022-08-16T06:04:36.092Z,2.47
2022-08-16T06:07:08.867Z,2.20
2022-08-16T06:09:43.640Z,2.17
2022-08-16T06:12:27.302Z,2.45
2022-08-16T06:14:59.674Z,1.85
2022-08-16T06:17:42.998Z,1.90
2022-08-16T06:20:23.132Z,2.45
2022-08-16T06:22:58.739Z,1.95
2022-08-16T06:25:36.437Z,2.58
2022-08-16T06:28:16.808Z,2.25
2022-08-16T06:30:45.462Z,2.28
2022-08-16T06:33:22.126Z,2.40
2022-08-16T06:35:50.923Z,2.08
2022-08-16T06:38:33.638Z,2.30
2022-08-16T06:41:05.509Z,2.20
2022-08-16T06:43:34.721Z,2.00
2022-08-16T06:46:09.765Z,1.70
2022-08-16T06:48:43.150Z,1.35
2022-08-16T06:51:11.841Z,1.48
2022-08-16T06:56:14.891Z,1.42
2022-08-16T06:58:52.461Z,1.70
2022-08-16T07:01:34.406Z,1.58
2022-08-16T07:04:11.203Z,1.40
2022-08-16T07:06:43.188Z,1.17
2022-08-16T07:09:12.514Z,1.50
2022-08-16T07:11:47.657Z,1.70
2022-08-16T07:14:24.065Z,1.52
2022-08-16T07:16:57.805Z,1.30
2022-08-16T07:20:01.926Z,1.40
2022-08-16T07:22:38.890Z,1.23
2022-08-16T07:25:14.417Z,1.27
2022-08-16T07:27:44.560Z,1.10
2022-08-16T07:30:39.841Z,1.50
2022-08-16T07:33:07.376Z,1.30
2022-08-16T07:35:37.285Z,1.40
2022-08-16T07:38:12.517Z,1.70
2022-08-16T07:41:00.109Z,1.42
2022-08-16T07:43:29.892Z,1.90
2022-08-16T07:45:58.754Z,1.45
2022-08-16T07:48:29.767Z,1.17
2022-08-16T07:51:00.354Z,1.42
2022-08-16T07:53:33.912Z,1.42
2022-08-16T07:56:11.572Z,1.50
2022-08-16T07:58:39.487Z,1.25
2022-08-16T08:01:10.563Z,1.60
2022-08-16T08:03:49.185Z,2.63
2022-08-16T08:06:20.620Z,1.20
2022-08-16T08:08:52.078Z,1.27
2022-08-16T08:11:23.668Z,1.20
2022-08-16T08:13:53.825Z,1.23
2022-08-16T08:16:30.465Z,1.27
2022-08-16T08:19:02.877Z,1.48
2022-08-16T08:21:59.894Z,1.55
2022-08-16T08:24:32.120Z,1.33
2022-08-16T08:27:02.208Z,1.27
2022-08-16T08:29:37.677Z,1.10
2022-08-16T08:33:02.257Z,1.33
2022-08-16T08:35:03.926Z,1.13
2022-08-16T08:37:54.074Z,1.13
2022-08-16T08:40:26.758Z,1.27
2022-08-16T08:43:00.140Z,1.23
2022-08-16T08:45:48.019Z,1.40
2022-08-16T08:48:33.791Z,1.10
2022-08-16T08:51:09.021Z,1.50
2022-08-16T08:53:39.799Z,1.38
2022-08-16T08:56:23.769Z,1.58
2022-08-16T08:58:59.118Z,1.23
2022-08-16T09:01:36.847Z,1.23
2022-08-16T09:04:14.808Z,1.13
2022-08-16T09:06:45.576Z,1.30
2022-08-16T09:09:16.740Z,1.13
2022-08-16T09:11:49.560Z,1.13
2022-08-16T09:14:24.102Z,1.08
2022-08-16T09:17:03.429Z,1.05
2022-08-16T09:19:37.207Z,1.17
2022-08-16T09:22:19.992Z,1.20
2022-08-16T09:24:53.440Z,0.90
2022-08-16T09:27:23.342Z,1.10
2022-08-16T09:30:00.414Z,1.15
2022-08-16T09:32:30.522Z,1.10
2022-08-16T09:35:01.576Z,1.35
2022-08-16T09:37:30.536Z,1.00
2022-08-16T09:40:32.907Z,0.93
2022-08-16T09:42:59.748Z,0.93
2022-08-16T09:45:30.106Z,1.30
2022-08-16T09:47:59.077Z,1.00
2022-08-16T09:50:37.037Z,0.90
2022-08-16T09:53:16.744Z,1.02
2022-08-16T09:55:49.630Z,0.88
2022-08-16T09:58:40.498Z,0.88
2022-08-16T10:01:08.355Z,1.00
2022-08-16T10:03:36.684Z,1.10
2022-08-16T10:06:04.840Z,1.17
2022-08-16T10:08:33.026Z,1.20
2022-08-16T10:11:54.436Z,1.08
2022-08-16T10:14:24.912Z,1.10
2022-08-16T10:17:04.266Z,0.98
2022-08-16T10:19:34.183Z,1.20
2022-08-16T10:22:05.011Z,1.10
2022-08-16T10:24:34.691Z,1.02
2022-08-16T10:27:25.152Z,0.98
2022-08-16T10:30:00.646Z,1.05
2022-08-16T10:32:35.279Z,1.40
2022-08-16T10:35:03.759Z,0.90
2022-08-16T10:37:36.192Z,1.00
2022-08-16T10:40:28.586Z,0.80
2022-08-16T10:42:58.843Z,0.80
2022-08-16T10:45:28.726Z,1.02
2022-08-16T10:48:24.044Z,1.05
2022-08-16T10:50:58.169Z,1.00
2022-08-16T10:53:27.247Z,1.17
2022-08-16T10:56:02.534Z,1.05
2022-08-16T10:58:34.957Z,0.98
2022-08-16T11:03:54.034Z,1.20
2022-08-16T11:06:26.998Z,1.00
2022-08-16T11:14:36.387Z,0.80
2022-08-16T11:17:10.811Z,1.10
2022-08-16T11:22:47.691Z,1.10
2022-08-16T11:28:09.199Z,0.80
2022-08-16T11:30:39.627Z,1.17
2022-08-16T11:33:09.071Z,1.02
2022-08-16T11:38:51.552Z,0.70
2022-08-16T11:41:15.655Z,0.90
2022-08-16T11:43:43.780Z,0.90
2022-08-16T11:46:44.659Z,0.82
2022-08-16T11:49:11.210Z,0.82
2022-08-16T11:51:43.935Z,1.17
2022-08-16T11:56:52.402Z,0.75
2022-08-16T11:59:28.407Z,0.93
2022-08-16T12:01:59.911Z,0.80
2022-08-16T12:04:33.898Z,0.90
2022-08-16T12:07:02.345Z,1.17
2022-08-16T12:09:32.607Z,0.90
2022-08-16T12:12:03.071Z,0.90
2022-08-16T12:14:35.306Z,0.93
2022-08-16T12:17:08.223Z,1.08
2022-08-16T12:19:36.981Z,0.90
2022-08-16T12:22:18.564Z,0.90
2022-08-16T12:24:51.945Z,0.88
2022-08-16T12:27:24.063Z,0.90
2022-08-16T12:29:53.485Z,1.00
2022-08-16T12:32:37.868Z,1.00
2022-08-16T12:35:13.206Z,1.10
2022-08-16T12:37:43.198Z,0.90
2022-08-16T12:40:24.085Z,1.10
2022-08-16T12:42:58.742Z,0.93
2022-08-16T12:45:30.313Z,1.10
2022-08-16T12:48:34.580Z,0.65
2022-08-16T12:51:19.999Z,0.80
2022-08-16T12:53:53.911Z,0.82
2022-08-16T12:56:26.554Z,0.80
2022-08-16T12:58:56.229Z,1.02
2022-08-16T13:01:28.999Z,0.77
2022-08-16T13:04:11.558Z,0.88
2022-08-16T13:06:52.002Z,1.73
2022-08-16T13:09:23.432Z,0.98
2022-08-16T13:14:33.561Z,0.93
2022-08-16T13:17:06.477Z,1.23
2022-08-16T13:20:05.891Z,0.98
2022-08-16T13:22:25.959Z,0.95
2022-08-16T13:24:54.827Z,1.00
2022-08-16T13:27:59.285Z,1.10
2022-08-16T13:30:35.787Z,1.00
2022-08-16T13:33:00.601Z,1.13
2022-08-16T13:35:32.968Z,1.05
2022-08-16T13:38:02.626Z,0.90
2022-08-16T13:40:31.415Z,1.10
2022-08-16T13:42:59.781Z,0.95
2022-08-16T13:45:28.083Z,1.17
2022-08-16T13:48:06.427Z,0.80
2022-08-16T13:50:51.508Z,0.85
2022-08-16T13:53:24.396Z,0.95
2022-08-16T13:55:58.704Z,1.20
2022-08-16T13:58:34.883Z,0.80
2022-08-16T14:01:04.379Z,0.93
2022-08-16T14:03:38.555Z,1.17
2022-08-16T14:06:11.088Z,1.52
2022-08-16T14:08:42.335Z,1.00
2022-08-16T14:11:12.467Z,0.90
2022-08-16T14:13:42.090Z,0.95
2022-08-16T14:16:12.605Z,0.98
2022-08-16T14:18:52.703Z,1.13
2022-08-16T14:21:23.727Z,0.90
2022-08-16T14:23:52.909Z,1.00
2022-08-16T14:26:21.443Z,1.02
2022-08-16T14:28:56.964Z,0.98
2022-08-16T14:31:31.023Z,0.90
2022-08-16T14:33:59.700Z,1.27
2022-08-16T14:36:30.167Z,0.90
2022-08-16T14:38:59.612Z,0.77
2022-08-16T14:41:28.619Z,1.00
2022-08-16T14:43:56.928Z,0.82
2022-08-16T14:46:25.287Z,0.60
2022-08-16T14:48:53.816Z,0.90
2022-08-16T14:51:22.754Z,1.13
2022-08-16T14:53:56.989Z,0.82
2022-08-16T14:56:38.655Z,0.80
2022-08-16T14:59:10.983Z,0.98
2022-08-16T15:01:57.640Z,1.52
2022-08-16T15:04:32.247Z,0.90
2022-08-16T15:07:12.734Z,1.20
2022-08-16T15:10:00.102Z,0.85
2022-08-16T15:12:33.838Z,1.05
2022-08-16T15:15:13.181Z,0.88
2022-08-16T15:17:53.635Z,0.90
2022-08-16T15:20:25.409Z,0.80
2022-08-16T15:22:55.986Z,0.90
2022-08-16T15:25:30.309Z,0.68
2022-08-16T15:28:02.290Z,0.80
2022-08-16T15:30:48.233Z,0.82
2022-08-16T15:33:25.790Z,1.02
2022-08-16T15:35:58.228Z,0.80
2022-08-16T15:38:57.153Z,0.85
2022-08-16T15:41:58.294Z,0.90
2022-08-16T15:44:44.144Z,0.70
2022-08-16T15:47:21.289Z,0.80
2022-08-16T15:49:54.625Z,0.65
2022-08-16T15:52:29.828Z,0.80
2022-08-16T15:55:13.259Z,1.00
2022-08-16T15:57:51.367Z,0.77
2022-08-16T16:00:21.106Z,0.98
2022-08-16T16:02:49.931Z,0.90
2022-08-16T16:05:19.628Z,0.80
2022-08-16T16:07:56.979Z,1.00
2022-08-16T16:10:37.983Z,1.00
2022-08-16T16:13:09.367Z,1.27
2022-08-16T16:15:42.945Z,1.10
2022-08-16T16:18:12.262Z,1.10
2022-08-16T16:20:43.870Z,1.08
2022-08-16T16:23:12.616Z,1.40
2022-08-16T16:25:44.081Z,1.10
2022-08-16T16:28:51.364Z,0.95
2022-08-16T16:31:08.268Z,0.98
2022-08-16T16:33:40.076Z,1.10
2022-08-16T16:36:11.174Z,0.95
2022-08-16T16:38:42.714Z,0.90
2022-08-16T16:41:11.128Z,0.82
2022-08-16T16:43:44.310Z,1.20
2022-08-16T16:46:39.227Z,1.30
2022-08-16T16:49:07.511Z,0.93
2022-08-16T16:51:40.414Z,1.00
2022-08-16T16:54:12.751Z,1.20
2022-08-16T16:56:49.546Z,1.15
2022-08-16T16:59:20.066Z,1.42
2022-08-16T17:01:59.736Z,1.20
2022-08-16T17:04:38.710Z,1.13
2022-08-16T17:07:10.651Z,1.00
2022-08-16T17:09:40.999Z,1.25
2022-08-16T17:12:10.190Z,1.50
2022-08-16T17:14:47.265Z,1.27
2022-08-16T17:17:15.410Z,1.40
2022-08-16T17:19:44.268Z,1.20
2022-08-16T17:22:15.649Z,1.52
2022-08-16T17:24:50.530Z,1.45
2022-08-16T17:27:32.754Z,1.50
2022-08-16T17:30:14.967Z,1.00
2022-08-16T17:32:50.603Z,1.50
2022-08-16T17:35:33.733Z,1.35
2022-08-16T17:38:04.713Z,1.50
2022-08-16T17:40:47.433Z,1.33
2022-08-16T17:43:29.628Z,1.10
2022-08-16T17:46:00.812Z,1.48
2022-08-16T17:48:31.086Z,1.17
2022-08-16T17:51:00.160Z,1.40
2022-08-16T17:53:28.610Z,1.40
2022-08-16T17:55:56.757Z,1.50
2022-08-16T17:58:24.742Z,1.70
2022-08-16T18:00:59.809Z,1.10
2022-08-16T18:04:02.193Z,1.38
2022-08-16T18:06:24.239Z,1.20
2022-08-16T18:09:00.322Z,1.23
2022-08-16T18:11:30.268Z,1.25
2022-08-16T18:14:01.057Z,1.77
2022-08-16T18:16:28.917Z,1.55
2022-08-16T18:18:58.397Z,1.65
2022-08-16T18:21:44.021Z,1.30
2022-08-16T18:24:14.877Z,1.40
2022-08-16T18:26:42.845Z,1.30
2022-08-16T18:29:10.933Z,1.00
2022-08-16T18:31:39.826Z,1.23
2022-08-16T18:34:09.395Z,1.23
2022-08-16T18:36:37.561Z,1.50
2022-08-16T18:39:05.787Z,1.35
2022-08-16T18:41:37.124Z,1.38
2022-08-16T18:44:26.105Z,1.25
2022-08-16T18:46:56.082Z,1.20
2022-08-16T18:49:25.613Z,1.30
2022-08-16T18:51:58.545Z,1.27
2022-08-16T18:54:28.205Z,1.20
2022-08-16T18:56:58.286Z,1.23
2022-08-16T18:59:29.297Z,1.33
2022-08-16T19:02:00.166Z,1.00
2022-08-16T19:04:47.842Z,0.88
2022-08-16T19:07:31.259Z,1.48
2022-08-16T19:10:01.653Z,1.55
2022-08-16T19:12:38.057Z,1.10
2022-08-16T19:15:21.282Z,1.30
2022-08-16T19:17:49.408Z,1.33
2022-08-16T19:20:24.034Z,1.42
2022-08-16T19:23:04.948Z,1.20
2022-08-16T19:25:46.266Z,1.33
2022-08-16T19:28:51.775Z,1.20
2022-08-16T19:31:14.787Z,1.88
2022-08-16T19:33:47.281Z,1.40
2022-08-16T19:36:31.228Z,1.33
2022-08-16T19:39:04.631Z,1.73
2022-08-16T19:41:35.696Z,1.10
2022-08-16T19:44:04.476Z,1.60
2022-08-16T19:46:32.357Z,1.42
2022-08-16T19:49:00.281Z,1.30
2022-08-16T19:51:29.836Z,1.58
2022-08-16T19:53:57.667Z,1.15
2022-08-16T19:56:26.907Z,1.30
2022-08-16T19:59:18.787Z,1.13
2022-08-16T20:01:44.001Z,1.40
2022-08-16T20:04:13.279Z,1.98
2022-08-16T20:06:43.363Z,1.38
2022-08-16T20:09:15.264Z,1.50
2022-08-16T20:11:45.343Z,1.45
2022-08-16T20:14:24.418Z,1.50
2022-08-16T20:19:23.967Z,1.00
2022-08-16T20:21:53.191Z,1.15
2022-08-16T20:24:36.837Z,0.98
2022-08-16T20:27:07.650Z,1.23
2022-08-16T20:32:05.573Z,1.25
2022-08-16T20:34:33.606Z,1.50
2022-08-16T20:37:02.813Z,1.60
2022-08-16T20:39:30.837Z,1.60
2022-08-16T20:41:59.090Z,1.83
2022-08-16T20:44:26.889Z,1.63
2022-08-16T20:46:54.721Z,1.48
2022-08-16T20:49:22.718Z,1.88
2022-08-16T20:51:55.854Z,1.48
2022-08-16T20:54:26.897Z,1.88
2022-08-16T20:56:54.735Z,1.50
2022-08-16T20:59:22.701Z,1.40
2022-08-16T21:01:50.984Z,1.30
2022-08-16T21:04:19.984Z,1.42
2022-08-16T21:06:53.598Z,1.42
2022-08-16T21:09:27.142Z,1.90
2022-08-16T21:11:58.845Z,1.70
2022-08-16T21:14:26.932Z,1.50
2022-08-16T21:16:56.120Z,1.70
2022-08-16T21:19:24.412Z,2.25
2022-08-16T21:21:52.402Z,1.65
2022-08-16T21:24:20.299Z,1.65
2022-08-16T21:26:55.404Z,1.90
2022-08-16T21:29:39.022Z,1.77
2022-08-16T21:32:16.199Z,2.10
2022-08-16T21:34:44.201Z,1.85
2022-08-16T21:37:15.622Z,1.60
2022-08-16T21:39:43.873Z,1.83
2022-08-16T21:42:18.315Z,1.50
2022-08-16T21:44:46.829Z,2.75
2022-08-16T21:47:14.726Z,1.98
2022-08-16T21:49:42.624Z,1.95
2022-08-16T21:52:25.964Z,1.80
2022-08-16T21:54:57.464Z,1.98
2022-08-16T21:57:27.162Z,2.05
2022-08-16T22:00:04.668Z,1.80
2022-08-16T22:02:38.637Z,1.67
2022-08-16T22:05:09.921Z,2.05
2022-08-16T22:07:37.776Z,1.70
2022-08-16T22:11:05.190Z,1.90
2022-08-16T22:12:57.138Z,1.88
2022-08-16T22:15:26.303Z,1.98
2022-08-16T22:17:57.030Z,1.67
2022-08-16T22:23:05.580Z,1.75
2022-08-16T22:25:33.364Z,1.75
2022-08-16T22:28:02.852Z,2.00
2022-08-16T22:30:30.640Z,1.58
2022-08-16T22:32:58.415Z,2.10
2022-08-16T22:35:26.233Z,1.80
2022-08-16T22:38:52.869Z,2.10
2022-08-16T22:40:42.101Z,2.22
2022-08-16T22:43:11.896Z,2.05
2022-08-16T22:45:40.672Z,2.05
2022-08-16T22:48:08.857Z,1.70
2022-08-16T22:50:38.102Z,1.90
2022-08-16T22:53:07.264Z,2.03
2022-08-16T22:55:35.684Z,2.33
2022-08-16T22:58:04.609Z,2.00
2022-08-16T23:00:35.927Z,2.00
2022-08-16T23:03:07.092Z,2.30
2022-08-16T23:05:38.848Z,1.90
2022-08-16T23:08:09.568Z,1.98
2022-08-16T23:10:37.926Z,1.90
2022-08-16T23:13:07.691Z,2.15
2022-08-16T23:15:44.465Z,2.63
2022-08-16T23:18:13.860Z,2.05
2022-08-16T23:20:42.806Z,1.75
2022-08-16T23:23:19.318Z,2.25
2022-08-16T23:25:54.899Z,2.17
2022-08-16T23:28:27.279Z,2.22
2022-08-16T23:30:58.311Z,2.35
2022-08-16T23:33:29.043Z,2.08
2022-08-16T23:38:38.558Z,2.10
2022-08-16T23:41:11.666Z,1.85
2022-08-16T23:43:43.268Z,2.20
2022-08-16T23:46:16.982Z,2.55
2022-08-16T23:49:45.051Z,2.70
2022-08-16T23:51:34.648Z,2.30
2022-08-16T23:54:02.414Z,2.08
2022-08-16T23:56:35.453Z,2.60
2022-08-16T23:59:08.167Z,2.20
